Mc Kinnon, Wyoming
Current Conditions -  °F | °C
As of 6:35 PM on Friday 24 Oct 2014 (Local Time) from KFBR Reporting Station
Clear Clear  
Wind Chill: 61°   Ceiling: Unl
Heat Index: 61°   Visibility: NA
Dew Point: 24°   Wind: 8mph
Humidity: 24%   Direction: 250°WSW
Pressure: 30.27"   Gusts: NA
Location:  41.275°N, 109.786°W
Report Text: KFBR 250035Z AUTO 25007KT CLR 16/M04 A3027 RMK AO2 T01631043 PWINO
Loading
Personal Weather Stations






























Interactive Weather Map
Tropical Storm Tracking
New forecast layout! Learn more

10-Day Weather Forecast

Advertisements
Track Severe Weather on mobile